Winterbourne, United Kingdom
Current Conditions -  °F | °C
As of 6:50 AM on Saturday 01 Nov 2014 (Local Time) from EGUB Reporting Station
Broken Clouds Broken Clouds  
Wind Chill: 55°   Ceiling: 1800
Heat Index: 55°   Visibility: 6mi
Dew Point: 50°   Wind: 6mph
Humidity: 82%   Direction: 200°SSW
Pressure: 29.97"   Gusts: NA
Location:  51.45°N, 1.35°W
Report Text: EGUB 010650Z AUTO 20005KT 9999 // BKN018/// 13/10 Q1015
Loading
Personal Weather Stations






























Interactive Weather Map
Tropical Storm Tracking
New forecast layout! Learn more

10-Day Weather Forecast

Advertisements
Track Severe Weather on mobile